Map

Track Data

SID SEASON NUMBER BASIN SUBBASIN NAME ISO_TIME NATURE LAT LON WMO_WIND WMO_PRES WMO_AGENCY TRACK_TYPE DIST2LAND LANDFALL IFLAG USA_AGENCY USA_ATCF_ID USA_LAT USA_LON USA_RECORD USA_STATUS USA_WIND USA_PRES USA_SSHS USA_R34_NE USA_R34_SE USA_R34_SW USA_R34_NW USA_R50_NE USA_R50_SE USA_R50_SW USA_R50_NW USA_R64_NE USA_R64_SE USA_R64_SW USA_R64_NW USA_POCI USA_ROCI USA_RMW USA_EYE TOKYO_LAT TOKYO_LON TOKYO_GRADE TOKYO_WIND TOKYO_PRES TOKYO_R50_DIR TOKYO_R50_LONG TOKYO_R50_SHORT TOKYO_R30_DIR TOKYO_R30_LONG TOKYO_R30_SHORT TOKYO_LAND CMA_LAT CMA_LON CMA_CAT CMA_WIND CMA_PRES HKO_LAT HKO_LON HKO_CAT HKO_WIND HKO_PRES NEWDELHI_LAT NEWDELHI_LON NEWDELHI_GRADE NEWDELHI_WIND NEWDELHI_PRES NEWDELHI_CI NEWDELHI_DP NEWDELHI_POCI REUNION_LAT REUNION_LON REUNION_TYPE REUNION_WIND REUNION_PRES REUNION_TNUM REUNION_CI REUNION_RMW REUNION_R34_NE REUNION_R34_SE REUNION_R34_SW REUNION_R34_NW REUNION_R50_NE REUNION_R50_SE REUNION_R50_SW REUNION_R50_NW REUNION_R64_NE REUNION_R64_SE REUNION_R64_SW REUNION_R64_NW BOM_LAT BOM_LON BOM_TYPE BOM_WIND BOM_PRES BOM_TNUM BOM_CI BOM_RMW BOM_R34_NE BOM_R34_SE BOM_R34_SW BOM_R34_NW BOM_R50_NE BOM_R50_SE BOM_R50_SW BOM_R50_NW BOM_R64_NE BOM_R64_SE BOM_R64_SW BOM_R64_NW BOM_ROCI BOM_POCI BOM_EYE BOM_POS_METHOD BOM_PRES_METHOD NADI_LAT NADI_LON NADI_CAT NADI_WIND NADI_PRES WELLINGTON_LAT WELLINGTON_LON WELLINGTON_WIND WELLINGTON_PRES DS824_LAT DS824_LON DS824_STAGE DS824_WIND DS824_PRES TD9636_LAT TD9636_LON TD9636_STAGE TD9636_WIND TD9636_PRES TD9635_LAT TD9635_LON TD9635_WIND TD9635_PRES TD9635_ROCI NEUMANN_LAT NEUMANN_LON NEUMANN_CLASS NEUMANN_WIND NEUMANN_PRES MLC_LAT MLC_LON MLC_CLASS MLC_WIND MLC_PRES USA_GUST BOM_GUST BOM_GUST_PER REUNION_GUST REUNION_GUST_PER USA_SEAHGT USA_SEARAD_NE USA_SEARAD_SE USA_SEARAD_SW USA_SEARAD_NW STORM_SPEED STORM_DIR
1977025S11064 1977 8 SI MM EMILIE 1977-01-25 00:00:00 TS -10.5000 64.1000 main 1274 1232 ____________O_ -1 -10.5000 64.1000 TC 30 8 247
1977025S11064 1977 8 SI MM EMILIE 1977-01-25 03:00:00 TS -10.6601 63.7126 main 1232 1232 ____________P_ -1 -10.6601 63.7126 TC 30 4 249
1977025S11064 1977 8 SI MM EMILIE 1977-01-25 06:00:00 TS -10.6500 63.7000 main 1242 1216 O________OO_O_ jtwc_sh SH101977 -10.5000 64.1000 -1 -10.5000 64.1000 TC 25 -10.5000 64.1000 1 -10.8000 63.3000 TC 30 4 256
1977025S11064 1977 8 SI MM EMILIE 1977-01-25 09:00:00 TS -10.7524 63.3313 main 1201 1185 P________PP_P_ SH101977 -10.6602 63.6376 -1 -10.6602 63.6376 TC 25 -10.6269 63.6814 1 -10.9075 62.8500 TC 30 7 254
1977025S11064 1977 8 SI MM EMILIE 1977-01-25 12:00:00 TS -10.8506 62.9677 main 1175 1155 O________OP_O_ jtwc_sh SH101977 -10.8000 63.2000 -1 -10.8000 63.2000 TC 25 -10.7528 63.2601 1 -11.0000 62.4000 TC 30 7 255
1977025S11064 1977 8 SI MM EMILIE 1977-01-25 15:00:00 TS -10.9480 62.6065 main 1155 1126 P________PP_P_ SH101977 -10.9074 62.7999 -1 -10.9074 62.7999 TC 25 -10.8773 62.8338 1 -11.0999 61.9925 TC 30 8 255
1977025S11064 1977 8 SI MM EMILIE 1977-01-25 18:00:00 TS -11.0500 62.2000 main 1126 1088 O________OO_O_ jtwc_sh SH101977 -11.0000 62.4000 -1 -11.0000 62.4000 TC 25 -11.0000 62.4000 1 -11.2000 61.6000 TC 30 9 256
1977025S11064 1977 8 SI MM EMILIE 1977-01-25 21:00:00 TS -11.1586 61.7538 main 1088 1061 P________PP_P_ SH101977 -11.1000 61.9425 -1 -11.1000 61.9425 TC 25 -11.1194 61.9604 1 -11.3150 61.1700 TC 30 9 256
1977025S11064 1977 8 SI MM EMILIE 1977-01-26 00:00:00 TS -11.2575 61.3332 main 1057 1046 O________OP_O_ jtwc_sh SH101977 -11.2000 61.5000 -1 -11.2000 61.5000 TC 25 -11.2301 61.5326 1 -11.4000 60.8000 TC 30 8 257
1977025S11064 1977 8 SI MM EMILIE 1977-01-26 03:00:00 TS -11.3370 60.9834 main 1046 1025 P________PP_P_ SH101977 -11.3075 61.1125 -1 -11.3075 61.1125 TC 25 -11.3257 61.1385 1 -11.4074 60.5699 TC 30 6 257
1977025S11064 1977 8 SI MM EMILIE 1977-01-26 06:00:00 TS -11.4000 60.7000 main 1025 1008 O________OO_O_ jtwc_sh SH101977 -11.4000 60.8000 -1 -11.4000 60.8000 TC 25 -11.4000 60.8000 1 -11.4000 60.4000 TC 30 5 257
1977025S11064 1977 8 SI MM EMILIE 1977-01-26 09:00:00 TS -11.4536 60.4753 main 1008 1001 P________PP_P_ SH101977 -11.4649 60.5775 -1 -11.4649 60.5775 TC 25 -11.4422 60.5464 1 -11.4425 60.2000 TC 30 4 257
1977025S11064 1977 8 SI MM EMILIE 1977-01-26 12:00:00 TS -11.4911 60.2868 main 1001 996 O________OP_O_ jtwc_sh SH101977 -11.5000 60.4000 -1 -11.5000 60.4000 TC 25 -11.4646 60.3473 1 -11.5000 60.0000 TC 30 4 262
1977025S11064 1977 8 SI MM EMILIE 1977-01-26 15:00:00 TS -11.5074 60.0955 main 996 990 P________PP_P_ SH101977 -11.5000 60.2000 -1 -11.5000 60.2000 TC 25 -11.4797 60.1745 1 -11.5500 59.8075 TC 30 4 265
1977025S11064 1977 8 SI MM EMILIE 1977-01-26 18:00:00 TS -11.5250 59.9000 main 990 975 O________OO_O_ jtwc_sh SH101977 -11.5000 60.0000 -1 -11.5000 60.0000 TC 25 -11.5000 60.0000 1 -11.6000 59.6000 TC 30 4 261
1977025S11064 1977 8 SI MM EMILIE 1977-01-26 21:00:00 TS -11.5694 59.6907 main 975 970 P________PP_P_ SH101977 -11.5425 59.8075 -1 -11.5425 59.8075 TC 25 -11.5427 59.7903 1 -11.6500 59.3575 TC 30 4 257
1977025S11064 1977 8 SI MM EMILIE 1977-01-27 00:00:00 TS -11.6231 59.4681 main 970 953 O________OP_O_ jtwc_sh SH101977 -11.6000 59.6000 -1 -11.6000 59.6000 TC 25 -11.5924 59.5725 1 -11.7000 59.1000 TC 30 5 257
1977025S11064 1977 8 SI MM EMILIE 1977-01-27 03:00:00 TS -11.6739 59.2290 main 953 950 P________PP_P_ SH101977 -11.6500 59.3575 -1 -11.6500 59.3575 TC 25 -11.6458 59.3434 1 -11.7500 58.8575 TC 30 5 258
1977025S11064 1977 8 SI MM EMILIE 1977-01-27 06:00:00 TS -11.7250 58.9750 main 950 935 O________OO_O_ jtwc_sh SH101977 -11.7000 59.1000 -1 -11.7000 59.1000 TC 25 -11.7000 59.1000 1 -11.8000 58.6000 TC 30 5 259
1977025S11064 1977 8 SI MM EMILIE 1977-01-27 09:00:00 TS -11.7750 58.7126 main 935 932 P________PP_P_ SH101977 -11.7500 58.8575 -1 -11.7500 58.8575 TC 25 -11.7500 58.8353 1 -11.8500 58.3000 TC 30 5 259
1977025S11064 1977 8 SI MM EMILIE 1977-01-27 12:00:00 TS -11.8250 58.4394 main 927 903 O________OP_O_ jtwc_sh SH101977 -11.8000 58.6000 -1 -11.8000 58.6000 TC 25 -11.8000 58.5575 1 -11.9000 58.0000 TC 30 6 260
1977025S11064 1977 8 SI MM EMILIE 1977-01-27 15:00:00 TS -11.8750 58.1527 main 903 872 P________PP_P_ SH101977 -11.8500 58.3000 -1 -11.8500 58.3000 TC 25 -11.8500 58.2759 1 -11.9500 57.7350 TC 30 6 260
1977025S11064 1977 8 SI MM EMILIE 1977-01-27 18:00:00 TS -11.9250 57.8750 main 872 837 O________OO_O_ jtwc_sh SH101977 -11.9000 58.0000 -1 -11.9000 58.0000 TC 25 -11.9000 58.0000 1 -12.0000 57.5000 TC 30 5 260
1977025S11064 1977 8 SI MM EMILIE 1977-01-27 21:00:00 TS -11.9673 57.6272 main 837 816 P________PP_P_ SH101977 -11.9500 57.7425 -1 -11.9500 57.7425 TC 25 -11.9418 57.7387 1 -12.0275 57.2850 TC 30 5 258
1977025S11064 1977 8 SI MM EMILIE 1977-01-28 00:00:00 TS -12.0212 57.3962 main 816 793 O________OP_O_ jtwc_sh SH101977 -12.0000 57.5000 -1 -12.0000 57.5000 TC 25 -11.9849 57.4849 1 -12.1000 57.1000 TC 30 5 252
1977025S11064 1977 8 SI MM EMILIE 1977-01-28 03:00:00 TS -12.1126 57.1665 main 793 769 P________PP_P_ SH101977 -12.0425 57.2500 -1 -12.0425 57.2500 TC 25 -12.0356 57.2387 1 -12.3300 56.9276 TC 32 5 246
1977025S11064 1977 8 SI MM EMILIE 1977-01-28 06:00:00 TS -12.2176 56.9412 reunion main 758 745 O____O___OO_O_ jtwc_sh SH101977 -12.1000 57.0000 -1 -12.5000 56.8000 3 9.90000 -12.1000 57.0000 TC 25 -12.1000 57.0000 1 -12.5000 56.8000 TC 35 4 251
1977025S11064 1977 8 SI MM EMILIE 1977-01-28 09:00:00 TS -12.2538 56.7513 main 745 724 P____P___PP_P_ SH101977 -12.1925 56.7425 -1 -12.3450 56.7725 3 -12.1925 56.7425 TC 25 -12.1896 56.7597 1 -12.3950 56.7500 TC 35 4 263
1977025S11064 1977 8 SI MM EMILIE 1977-01-28 12:00:00 TS -12.2616 56.5795 reunion main 724 703 O____O___OP_O_ jtwc_sh SH101977 -12.3000 56.5000 -1 -12.2000 56.7000 99 9.90000 -12.3000 56.5000 TC 25 -12.2925 56.5276 1 -12.2000 56.7000 TC 35 3 267
1977025S11064 1977 8 SI MM EMILIE 1977-01-28 15:00:00 TS -12.2738 56.4013 main 703 682 P____P___PP_P_ SH101977 -12.4075 56.2925 -1 -12.0775 56.5575 99 -12.4075 56.2925 TC 25 -12.3990 56.3066 1 -12.0775 56.5575 TC 37 4 264
1977025S11064 1977 8 SI MM EMILIE 1977-01-28 18:00:00 TS -12.3000 56.2200 reunion main 682 671 O____O___OO_O_ jtwc_sh SH101977 -12.5000 56.1000 -1 -12.0000 56.4000 99 9.90000 -12.5000 56.1000 TC 25 -12.5000 56.1000 1 -12.0000 56.4000 TC 40 3 262
1977025S11064 1977 8 SI MM EMILIE 1977-01-28 21:00:00 TS -12.3239 56.0577 main 671 647 P____P___PP_P_ SH101977 -12.5500 55.8925 -1 -11.9850 56.2925 99 -12.5500 55.8925 TC 25 -12.5496 55.9185 1 -11.9850 56.2925 TC 42 3 259
1977025S11064 1977 8 SI MM EMILIE 1977-01-29 00:00:00 TS -12.3595 55.9099 reunion main 647 637 O____O___OP_O_ jtwc_sh SH101977 -12.6000 55.7000 -1 -12.0000 56.2000 99 9.90000 -12.6000 55.7000 TC 25 -12.5973 55.7496 1 -12.0000 56.2000 TC 45 3 257
1977025S11064 1977 8 SI MM EMILIE 1977-01-29 03:00:00 TS -12.3873 55.7851 main 637 623 P____P___PP_P_ SH101977 -12.6699 55.5574 -1 -11.9625 56.1149 99 -12.6699 55.5574 TC 30 -12.6714 55.5809 1 -11.9625 56.1149 TC 47 3 245
1977025S11064 1977 8 SI MM EMILIE 1977-01-29 06:00:00 TS -12.4800 55.6400 reunion main 613 587 O____O___OO_O_ jtwc_sh SH101977 -12.8000 55.4000 -1 -12.0000 56.0000 3 9.90000 -12.8000 55.4000 TC 35 -12.8000 55.4000 2 -12.0000 56.0000 TC 50 5 231
1977025S11064 1977 8 SI MM EMILIE 1977-01-29 09:00:00 TS -12.6950 55.3983 main 587 559 P____P___PP_P_ SH101977 -13.0200 55.1575 -1 -12.2126 55.7777 3 -13.0200 55.1575 TC 35 -13.0096 55.1210 2 -12.2126 55.7777 TC 52 7 223
1977025S11064 1977 8 SI MM EMILIE 1977-01-29 12:00:00 TS -12.9750 55.1677 reunion main 559 534 O____O___OP_O_ jtwc_sh SH101977 -13.3000 54.9000 -1 -12.5000 55.6000 99 9.90000 -13.3000 54.9000 TC 35 -13.2752 54.8386 2 -12.5000 55.6000 TC 55 7 214
1977025S11064 1977 8 SI MM EMILIE 1977-01-29 15:00:00 TS -13.2406 55.0174 main 534 520 P____P___PP_P_ SH101977 -13.5925 54.6402 -1 -12.7200 55.5975 99 -13.5925 54.6402 TC 35 -13.5782 54.6118 2 -12.7200 55.5975 TC 55 6 198
1977025S11064 1977 8 SI MM EMILIE 1977-01-29 18:00:00 TS -13.5400 54.9800 reunion main 520 509 O____O___OO_O_ jtwc_sh SH101977 -13.9000 54.5000 -1 -13.0000 55.7000 99 9.90000 -13.9000 54.5000 TC 35 -13.9000 54.5000 2 -13.0000 55.7000 TC 55 7 175
1977025S11064 1977 8 SI MM EMILIE 1977-01-29 21:00:00 TS -13.8961 55.0902 main 516 513 P____P___PP_P_ SH101977 -14.1925 54.5824 -1 -13.4425 55.8424 99 -14.1925 54.5824 TC 35 -14.2107 54.6013 2 -13.4425 55.8424 TC 55 8 158
1977025S11064 1977 8 SI MM EMILIE 1977-01-30 00:00:00 TS -14.2671 55.2833 reunion main 526 523 O____O___OP_O_ jtwc_sh SH101977 -14.5000 54.8000 -1 -13.9000 56.0000 99 9.90000 -14.5000 54.8000 TC 35 -14.5353 54.8163 2 -13.9000 56.0000 TC 55 8 150
1977025S11064 1977 8 SI MM EMILIE 1977-01-30 03:00:00 TS -14.5905 55.4956 main 541 540 P____P___PP_P_ SH101977 -14.8501 55.0648 -1 -14.1925 56.1375 99 -14.8501 55.0648 TC 35 -14.8671 55.0732 2 -14.1925 56.1375 TC 57 8 151
1977025S11064 1977 8 SI MM EMILIE 1977-01-30 06:00:00 TS -14.9200 55.6600 reunion main 559 557 O____O___OO_O_ jtwc_sh SH101977 -15.2000 55.3000 -1 -14.5000 56.2000 3 9.90000 -15.2000 55.3000 TC 35 -15.2000 55.3000 2 -14.5000 56.2000 TC 60 7 165
1977025S11064 1977 8 SI MM EMILIE 1977-01-30 09:00:00 TS -15.3028 55.6885 main 557 527 P____P___PP_P_ SH101977 -15.4999 55.3802 -1 -14.9925 56.1302 3 -15.4999 55.3802 TC 35 -15.5289 55.4216 2 -14.9925 56.1302 TC 60 8 0
1977025S11064 1977 8 SI MM EMILIE 1977-01-30 12:00:00 TS -15.6915 55.6595 reunion main 527 496 O____O___OP_O_ jtwc_sh SH101977 -15.8000 55.4000 -1 -15.5000 56.0000 99 9.90000 -15.8000 55.4000 TC 35 -15.8573 55.4975 2 -15.5000 56.0000 TC 60 7 182
1977025S11064 1977 8 SI MM EMILIE 1977-01-30 15:00:00 TS -16.0394 55.6598 main 496 460 P____P___PP_P_ SH101977 -16.1500 55.4575 -1 -15.8574 55.9297 99 -16.1500 55.4575 TC 35 -16.1821 55.5246 2 -15.8574 55.9297 TC 60 7 184
1977025S11064 1977 8 SI MM EMILIE 1977-01-30 18:00:00 TS -16.3800 55.6200 reunion main 460 434 O____O___OO_O_ jtwc_sh SH101977 -16.5000 55.5000 -1 -16.2000 55.8000 99 9.90000 -16.5000 55.5000 TC 35 -16.5000 55.5000 2 -16.2000 55.8000 TC 60 7 190
1977025S11064 1977 8 SI MM EMILIE 1977-01-30 21:00:00 TS -16.7408 55.5204 main 434 402 P____P___PP_P_ SH101977 -16.8074 55.5449 -1 -16.6351 55.5152 99 -16.8074 55.5449 TC 35 -16.8190 55.4819 2 -16.6351 55.5152 TC 60 8 199
1977025S11064 1977 8 SI MM EMILIE 1977-01-31 00:00:00 TS -17.1059 55.3614 reunion main 402 378 O____O___OP_O_ jtwc_sh SH101977 -17.1000 55.5000 -1 -17.1000 55.2000 99 9.90000 -17.1000 55.5000 TC 35 -17.1293 55.4070 2 -17.1000 55.2000 TC 60 8 204
1977025S11064 1977 8 SI MM EMILIE 1977-01-31 03:00:00 TS -17.4709 55.1776 main 378 359 P____P___PP_P_ SH101977 -17.4074 55.3175 -1 -17.5574 54.9997 99 -17.4074 55.3175 TC 35 -17.4250 55.2536 2 -17.5574 54.9997 TC 60 8 211
1977025S11064 1977 8 SI MM EMILIE 1977-01-31 06:00:00 TS -17.8200 54.9200 reunion main 360 330 O____O___OO_O_ jtwc_sh SH101977 -17.7000 55.0000 -1 -18.0000 54.8000 3 9.90000 -17.7000 55.0000 TC 35 -17.7000 55.0000 2 -18.0000 54.8000 TC 60 9 221
1977025S11064 1977 8 SI MM EMILIE 1977-01-31 09:00:00 TS -18.1551 54.5535 main 321 309 P____P___PP_P_ SH101977 -17.9650 54.5875 -1 -18.4451 54.4853 3 -17.9650 54.5875 TC 35 -17.9552 54.6219 2 -18.4451 54.4853 TC 60 10 230
1977025S11064 1977 8 SI MM EMILIE 1977-01-31 12:00:00 TS -18.4377 54.1496 reunion main 316 300 O____O___OP_O_ jtwc_sh SH101977 -18.2000 54.1000 -1 -18.8000 54.2000 99 9.90000 -18.2000 54.1000 TC 35 -18.1883 54.1479 2 -18.8000 54.2000 TC 60 9 236
1977025S11064 1977 8 SI MM EMILIE 1977-01-31 15:00:00 TS -18.6263 53.8107 main 310 301 P____P___PP_P_ SH101977 -18.4075 53.5999 -1 -18.9573 54.1145 99 -18.4075 53.5999 TC 35 -18.4021 53.6249 2 -18.9573 54.1145 TC 60 7 241
1977025S11064 1977 8 SI MM EMILIE 1977-01-31 18:00:00 TS -18.8000 53.4600 reunion main 309 307 O____O___OO_O_ jtwc_sh SH101977 -18.6000 53.1000 -1 -19.1000 54.0000 99 9.90000 -18.6000 53.1000 TC 35 -18.6000 53.1000 2 -19.1000 54.0000 TC 60 9 239
1977025S11064 1977 8 SI MM EMILIE 1977-01-31 21:00:00 TS -19.0647 53.0309 main 320 320 P____P___PP_P_ SH101977 -18.8073 52.6424 -1 -19.4578 53.6156 99 -18.8073 52.6424 TC 35 -18.7931 52.6384 2 -19.4578 53.6156 TC 60 10 238
1977025S11064 1977 8 SI MM EMILIE 1977-02-01 00:00:00 TS -19.3144 52.5969 reunion main 337 333 O____O___OP_O_ jtwc_sh SH101977 -19.0000 52.2000 -1 -19.8000 53.2000 99 9.90000 -19.0000 52.2000 TC 35 -18.9721 52.1845 2 -19.8000 53.2000 TC 60 8 241
1977025S11064 1977 8 SI MM EMILIE 1977-02-01 03:00:00 TS -19.4718 52.2565 main 337 300 P____P___PP_P_ SH101977 -19.1574 51.7499 -1 -19.9521 53.0222 99 -19.1574 51.7499 TC 35 -19.1400 51.7384 2 -19.9521 53.0222 TC 60 7 248
1977025S11064 1977 8 SI MM EMILIE 1977-02-01 06:00:00 TS -19.5800 51.9000 reunion main 300 263 O____O___OO_O_ jtwc_sh SH101977 -19.3000 51.3000 -1 -20.0000 52.8000 3 9.90000 -19.3000 51.3000 TC 35 -19.3000 51.3000 2 -20.0000 52.8000 TC 60 8 255
1977025S11064 1977 8 SI MM EMILIE 1977-02-01 09:00:00 TS -19.6760 51.4396 main 253 214 P____P___PP_P_ SH101977 -19.4499 50.8424 -1 -20.0075 52.3248 3 -19.4499 50.8424 TC 35 -19.4650 50.8636 2 -20.0075 52.3248 TC 60 9 259
1977025S11064 1977 8 SI MM EMILIE 1977-02-01 12:00:00 TS -19.7644 50.9270 reunion main 208 166 O____O___OP_O_ jtwc_sh SH101977 -19.6000 50.4000 -1 -20.0000 51.7000 99 9.90000 -19.6000 50.4000 TC 35 -19.6221 50.4348 2 -20.0000 51.7000 TC 60 10 259
1977025S11064 1977 8 SI MM EMILIE 1977-02-01 15:00:00 TS -19.8587 50.3936 main 166 114 P____P___PP_P_ SH101977 -19.7574 49.9850 -1 -20.0053 50.9922 99 -19.7574 49.9850 TC 35 -19.7681 50.0136 2 -20.0053 50.9922 TC 57 10 258
1977025S11064 1977 8 SI MM EMILIE 1977-02-01 18:00:00 TS -19.9800 49.8800 reunion main 114 73 O____O___OO_O_ jtwc_sh SH101977 -19.9000 49.6000 -1 -20.1000 50.3000 99 9.90000 -19.9000 49.6000 TC 35 -19.9000 49.6000 2 -20.1000 50.3000 TC 55 9 251
1977025S11064 1977 8 SI MM EMILIE 1977-02-01 21:00:00 TS -20.1610 49.4623 main 76 43 P____P___PP_P_ SH101977 -20.0073 49.2574 -1 -20.3845 49.7778 99 -20.0073 49.2574 TC 35 -20.0212 49.2411 2 -20.3845 49.7778 TC 55 9 245
1977025S11064 1977 8 SI MM EMILIE 1977-02-02 00:00:00 TS -20.3456 49.0564 reunion main 43 10 O____O___OP_O_ jtwc_sh SH101977 -20.1000 48.9000 -1 -20.7000 49.3000 99 9.90000 -20.1000 48.9000 TC 35 -20.1280 48.8819 2 -20.7000 49.3000 TC 55 9 248
1977025S11064 1977 8 SI MM EMILIE 1977-02-02 03:00:00 TS -20.4820 48.6003 main 10 0 P____P___PP_P_ SH101977 -20.2071 48.5025 -1 -20.8874 48.7574 99 -20.2071 48.5025 TC 35 -20.2209 48.4818 2 -20.8874 48.7574 TC 52 9 256
1977025S11064 1977 8 SI MM EMILIE 1977-02-02 06:00:00 TS -20.5800 48.0800 reunion main 0 0 O____O___OO_O_ jtwc_sh SH101977 -20.3000 48.0000 -1 -21.0000 48.2000 3 9.90000 -20.3000 48.0000 TC 35 -20.3000 48.0000 2 -21.0000 48.2000 TC 50 11 261
1977025S11064 1977 8 SI MM EMILIE 1977-02-02 09:00:00 TS -20.6466 47.4722 main 0 0 P____P___PP_P_ SH101977 -20.3576 47.3374 -1 -21.0723 47.6499 3 -20.3576 47.3374 TC 35 -20.3731 47.3862 2 -21.0723 47.6499 TC 45 12 265
1977025S11064 1977 8 SI MM EMILIE 1977-02-02 12:00:00 TS -20.6861 46.8180 reunion main 0 0 O____O___OP_O_ jtwc_sh SH101977 -20.4000 46.6000 -1 -21.1000 47.1000 99 9.90000 -20.4000 46.6000 TC 35 -20.4307 46.6900 2 -21.1000 47.1000 TC 40 12 267
1977025S11064 1977 8 SI MM EMILIE 1977-02-02 15:00:00 TS -20.7174 46.1727 main 0 0 P____P___PP_P_ SH101977 -20.4572 45.9001 -1 -21.0997 46.5573 99 -20.4572 45.9001 TC 35 -20.4728 45.9487 2 -21.0997 46.5573 TC 37 12 267
1977025S11064 1977 8 SI MM EMILIE 1977-02-02 18:00:00 TS -20.7400 45.5200 reunion main 0 0 O____O___OO_O_ jtwc_sh SH101977 -20.5000 45.2000 -1 -21.1000 46.0000 99 9.90000 -20.5000 45.2000 TC 35 -20.5000 45.2000 2 -21.1000 46.0000 TC 35 12 268
1977025S11064 1977 8 SI MM EMILIE 1977-02-02 21:00:00 TS -20.7623 44.8676 main 0 0 P____P___PP_P_ SH101977 -20.5072 44.4999 -1 -21.1495 45.4376 99 -20.5072 44.4999 TC 35 -20.4982 44.4628 2 -21.1495 45.4376 TC 32 12 268
1977025S11064 1977 8 SI MM EMILIE 1977-02-03 00:00:00 TS -20.7771 44.1863 reunion main 0 0 O____O___OP_O_ jtwc_sh SH101977 -20.5000 43.8000 -1 -21.2000 44.8000 99 9.90000 -20.5000 43.8000 TC 35 -20.4853 43.7316 2 -21.2000 44.8000 TC 30 13 269
1977025S11064 1977 8 SI MM EMILIE 1977-02-03 03:00:00 TS -20.7761 43.4349 main 51 51 P____P___PP_P_ SH101977 -20.4850 43.0773 -1 -21.2155 43.9925 99 -20.4850 43.0773 TC 35 -20.4797 43.0346 2 -21.2155 43.9925 TC 32 14 270
1977025S11064 1977 8 SI MM EMILIE 1977-02-03 06:00:00 TS -20.7800 42.7200 reunion main 106 106 O____O___OO_O_ jtwc_sh SH101977 -20.5000 42.4000 -1 -21.2000 43.2000 3 9.90000 -20.5000 42.4000 TC 35 -20.5000 42.4000 2 -21.2000 43.2000 TC 35 12 269
1977025S11064 1977 8 SI MM EMILIE 1977-02-03 09:00:00 TS -20.8047 42.1359 main 159 159 P____P___PP_P_ SH101977 -20.5848 41.8051 -1 -21.1419 42.6123 3 -20.5848 41.8051 TC 35 -20.5701 41.8445 2 -21.1419 42.6123 TC 40 10 266
1977025S11064 1977 8 SI MM EMILIE 1977-02-03 12:00:00 TS -20.8537 41.6306 reunion main 204 204 O____O___OP_O_ jtwc_sh SH101977 -20.7000 41.3000 -1 -21.1000 42.1000 99 9.90000 -20.7000 41.3000 TC 35 -20.6686 41.3530 2 -21.1000 42.1000 TC 45 9 262
1977025S11064 1977 8 SI MM EMILIE 1977-02-03 15:00:00 TS -20.9305 41.1470 main 255 255 P____P___PP_P_ SH101977 -20.7998 40.8699 -1 -21.1349 41.5426 99 -20.7998 40.8699 TC 35 -20.7829 40.9100 2 -21.1349 41.5426 TC 52 9 259
1977025S11064 1977 8 SI MM EMILIE 1977-02-03 18:00:00 TS -21.0200 40.7000 reunion main 291 291 O____O___OO_O_ jtwc_sh SH101977 -20.9000 40.5000 -1 -21.2000 41.0000 99 9.90000 -20.9000 40.5000 TC 35 -20.9000 40.5000 2 -21.2000 41.0000 TC 60 8 258
1977025S11064 1977 8 SI MM EMILIE 1977-02-03 21:00:00 TS -21.0967 40.2829 main 323 323 P____P___PP_P_ SH101977 -20.9998 40.1499 -1 -21.2421 40.5074 99 -20.9998 40.1499 TC 35 -20.9993 40.1001 2 -21.2421 40.5074 TC 60 8 258
1977025S11064 1977 8 SI MM EMILIE 1977-02-04 00:00:00 TS -21.1798 39.8654 reunion main 358 358 O____O___OP_O_ jtwc_sh SH101977 -21.1000 39.8000 -1 -21.3000 40.0000 99 9.90000 -21.1000 39.8000 TC 35 -21.0991 39.7272 2 -21.3000 40.0000 TC 60 9 257
1977025S11064 1977 8 SI MM EMILIE 1977-02-04 03:00:00 TS -21.2859 39.3902 main 405 362 P____P___PP_P_ SH101977 -21.2000 39.4075 -1 -21.4152 39.3853 99 -21.2000 39.4075 TC 35 -21.1994 39.3657 2 -21.4152 39.3853 TC 60 9 257
1977025S11064 1977 8 SI MM EMILIE 1977-02-04 06:00:00 TS -21.3800 38.9200 reunion main 362 322 O____O___OO_O_ jtwc_sh SH101977 -21.3000 39.0000 -1 -21.5000 38.8000 3 9.90000 -21.3000 39.0000 TC 35 -21.3000 39.0000 2 -21.5000 38.8000 TC 60 8 260
1977025S11064 1977 8 SI MM EMILIE 1977-02-04 09:00:00 TS -21.4282 38.5085 main 322 279 P____P___PP_P_ SH101977 -21.3999 38.5999 -1 -21.4647 38.3698 3 -21.3999 38.5999 TC 30 -21.4120 38.6032 2 -21.4647 38.3698 TC 60 7 264
1977025S11064 1977 8 SI MM EMILIE 1977-02-04 12:00:00 TS -21.4645 38.1200 reunion main 279 240 O____O___OP_O_ jtwc_sh SH101977 -21.5000 38.2000 -1 -21.4000 38.0000 99 9.90000 -21.5000 38.2000 TC 25 -21.5223 38.2002 2 -21.4000 38.0000 TC 60 7 263
1977025S11064 1977 8 SI MM EMILIE 1977-02-04 15:00:00 TS -21.5242 37.7224 main 240 197 P____P___PP_P_ SH101977 -21.6074 37.8000 -1 -21.3923 37.6076 99 -21.6074 37.8000 TC 25 -21.6214 37.7970 2 -21.3923 37.6076 TC 60 8 261
1977025S11064 1977 8 SI MM EMILIE 1977-02-04 18:00:00 TS -21.5800 37.3200 reunion main 197 159 O____O___OO_O_ jtwc_sh SH101977 -21.7000 37.4000 -1 -21.4000 37.2000 99 9.90000 -21.7000 37.4000 TC 25 -21.7000 37.4000 1 -21.4000 37.2000 TC 60 8 263
1977025S11064 1977 8 SI MM EMILIE 1977-02-04 21:00:00 TS -21.6139 36.8951 main 159 123 P____P___PP_P_ SH101977 -21.7650 36.9925 -1 -21.3925 36.7424 99 -21.7650 36.9925 TC 25 -21.7545 37.0055 1 -21.3925 36.7424 TC 55 8 265
1977025S11064 1977 8 SI MM EMILIE 1977-02-05 00:00:00 TS -21.6500 36.4936 reunion main 123 91 O____O___OP_O_ jtwc_sh SH101977 -21.8000 36.6000 -1 -21.4000 36.3000 99 9.90000 -21.8000 36.6000 TC 25 -21.7873 36.6198 1 -21.4000 36.3000 TC 50 7 264
1977025S11064 1977 8 SI MM EMILIE 1977-02-05 03:00:00 TS -21.6841 36.1373 main 82 51 P____P___PP_P_ SH101977 -21.8074 36.2349 -1 -21.4400 35.9276 99 -21.8074 36.2349 TC 25 -21.8015 36.2493 1 -21.4423 35.9350 TC 47 6 263
1977025S11064 1977 8 SI MM EMILIE 1977-02-05 06:00:00 TS -21.7250 35.8250 reunion main 51 30 O____O___OO_O_ jtwc_sh SH101977 -21.8000 35.9000 -1 -21.5000 35.6000 3 9.90000 -21.8000 35.9000 TC 25 -21.8000 35.9000 1 -21.5000 35.6000 TC 45 6 261
1977025S11064 1977 8 SI MM EMILIE 1977-02-05 09:00:00 TS -21.7692 35.5403 main 20 0 P________PP_P_ SH101977 -21.8074 35.5925 -1 3 -21.8074 35.5925 TC 25 -21.8012 35.5785 1 -21.5527 35.2550 TC 37 5 264
1977025S11064 1977 8 SI MM EMILIE 1977-02-05 12:00:00 TS -21.7806 35.2623 main 0 0 O________OP_O_ jtwc_sh SH101977 -21.8000 35.3000 -1 -21.8000 35.3000 TC 25 -21.7870 35.2776 1 -21.6000 34.9000 TC 30 5 271
1977025S11064 1977 8 SI MM EMILIE 1977-02-05 15:00:00 TS -21.7614 34.9960 main 0 0 P________PP___ SH101977 -21.7649 35.0000 -1 -21.7649 35.0000 TC 25 -21.7544 34.9879 1 TC 5 279
1977025S11064 1977 8 SI MM EMILIE 1977-02-05 18:00:00 TS -21.7000 34.7000 main 0 0 O________OO___ jtwc_sh SH101977 -21.7000 34.7000 -1 -21.7000 34.7000 TC 25 -21.7000 34.7000 1 6 285
1977025S11064 1977 8 SI MM EMILIE 1977-02-05 21:00:00 TS -21.6067 34.3945 main 0 0 P________PP___ SH101977 -21.6074 34.4000 -1 -21.6074 34.4000 TC 25 -21.6053 34.3834 1 6 290
1977025S11064 1977 8 SI MM EMILIE 1977-02-06 00:00:00 TS -21.4975 34.0898 main 0 0 O________OP___ jtwc_sh SH101977 -21.5000 34.1000 -1 -21.5000 34.1000 TC 25 -21.4926 34.0695 1 6 291
1977025S11064 1977 8 SI MM EMILIE 1977-02-06 03:00:00 TS -21.3845 33.7803 main 0 0 P________PP___ SH101977 -21.3850 33.7849 -1 -21.3850 33.7849 TC 25 -21.3835 33.7709 1 6 290
1977025S11064 1977 8 SI MM EMILIE 1977-02-06 06:00:00 TS -21.3000 33.5000 main 0 0 O________OO___ jtwc_sh SH101977 -21.3000 33.5000 -1 -21.3000 33.5000 TC 25 -21.3000 33.5000 1 5 282
1977025S11064 1977 8 SI MM EMILIE 1977-02-06 09:00:00 TS -21.2816 33.2806 main 0 0 P________PP___ SH101977 -21.2849 33.2851 -1 -21.2849 33.2851 TC 25 -21.2750 33.2716 1 4 271
1977025S11064 1977 8 SI MM EMILIE 1977-02-06 12:00:00 TS -21.2924 33.0901 main 0 0 O________OP___ jtwc_sh SH101977 -21.3000 33.1000 -1 -21.3000 33.1000 TC 25 -21.2772 33.0704 1 4 268
1977025S11064 1977 8 SI MM EMILIE 1977-02-06 15:00:00 TS -21.2969 32.8947 main 0 0 P________PP___ SH101977 -21.3000 32.9000 -1 -21.3000 32.9000 TC 25 -21.2907 32.8840 1 4 269
1977025S11064 1977 8 SI MM EMILIE 1977-02-06 18:00:00 TS -21.3000 32.7000 main 0 0 O________OO___ jtwc_sh SH101977 -21.3000 32.7000 -1 -21.3000 32.7000 TC 25 -21.3000 32.7000 1 4 269
1977025S11064 1977 8 SI MM EMILIE 1977-02-06 21:00:00 TS -21.3044 32.5041 main 0 0 P________PP___ SH101977 -21.3075 32.5000 -1 -21.3075 32.5000 TC 25 -21.2983 32.5124 1 4 271
1977025S11064 1977 8 SI MM EMILIE 1977-02-07 00:00:00 TS -21.2957 32.3076 main 0 0 O________OP___ jtwc_sh SH101977 -21.3000 32.3000 -1 -21.3000 32.3000 TC 25 -21.2872 32.3228 1 4 277
1977025S11064 1977 8 SI MM EMILIE 1977-02-07 03:00:00 TS -21.2625 32.1123 main 0 0 P________PP___ SH101977 -21.2649 32.1075 -1 -21.2649 32.1075 TC 25 -21.2576 32.1218 1 4 284
1977025S11064 1977 8 SI MM EMILIE 1977-02-07 06:00:00 TS -21.2000 31.9000 main 0 0 O________OO___ jtwc_sh SH101977 -21.2000 31.9000 -1 -21.2000 31.9000 TC 25 -21.2000 31.9000 1 4 290
1977025S11064 1977 8 SI MM EMILIE 1977-02-07 09:00:00 TS -21.1085 31.6642 main 0 0 P________PP___ SH101977 -21.1150 31.6650 -1 -21.1150 31.6650 TC 25 -21.0954 31.6626 1 5 294
1977025S11064 1977 8 SI MM EMILIE 1977-02-07 12:00:00 TS -20.9882 31.4007 main 0 0 O________OP___ jtwc_sh SH101977 -21.0000 31.4000 -1 -21.0000 31.4000 TC 25 -20.9647 31.4022 1 6 297
1977025S11064 1977 8 SI MM EMILIE 1977-02-07 15:00:00 TS -20.8422 31.1152 main 0 0 P________PP___ SH101977 -20.8499 31.1150 -1 -20.8499 31.1150 TC 25 -20.8266 31.1158 1 6 297
1977025S11064 1977 8 SI MM EMILIE 1977-02-07 18:00:00 TS -20.7000 30.8000 main 0 0 O________OO___ jtwc_sh SH101977 -20.7000 30.8000 -1 -20.7000 30.8000 TC 25 -20.7000 30.8000 1 6 292
1977025S11064 1977 8 SI MM EMILIE 1977-02-07 21:00:00 TS -20.6000 30.4751 main 0 0 P________PP___ SH101977 -20.5849 30.4650 -1 -20.5849 30.4650 TC 25 -20.6302 30.4951 1 7 285
1977025S11064 1977 8 SI MM EMILIE 1977-02-08 00:00:00 TS -20.5238 30.1187 main 0 0 O________OP___ jtwc_sh SH101977 -20.5000 30.1000 -1 -20.5000 30.1000 TC 25 -20.5713 30.1561 1 7 280
1977025S11064 1977 8 SI MM EMILIE 1977-02-08 03:00:00 TS -20.4821 29.7416 main 0 0 P________PP___ SH101977 -20.4723 29.7304 -1 -20.4723 29.7304 TC 25 -20.5018 29.7640 1 8 279
1977025S11064 1977 8 SI MM EMILIE 1977-02-08 06:00:00 TS -20.4000 29.3000 main 0 0 O________OO___ jtwc_sh SH101977 -20.4000 29.3000 -1 -20.4000 29.3000 TC 25 -20.4000 29.3000 1 10 289
1977025S11064 1977 8 SI MM EMILIE 1977-02-08 09:00:00 TS -20.1722 28.7849 main 0 0 P________PP___ SH101977 -20.1648 28.7947 -1 -20.1648 28.7947 TC 25 -20.1871 28.7653 1 12 295
1977025S11064 1977 8 SI MM EMILIE 1977-02-08 12:00:00 TS -19.9157 28.1865 main 0 0 O________OP___ jtwc_sh SH101977 -19.9000 28.2000 -1 -19.9000 28.2000 TC 25 -19.9471 28.1595 1 13 291
1977025S11064 1977 8 SI MM EMILIE 1977-02-08 15:00:00 TS -19.7095 27.5196 main 0 0 P________PP___ SH101977 -19.6974 27.5297 -1 -19.6974 27.5297 TC 25 -19.7336 27.4993 1 13 284
1977025S11064 1977 8 SI MM EMILIE 1977-02-08 18:00:00 TS -19.6000 26.8000 main 0 0 O________OO___ jtwc_sh SH101977 -19.6000 26.8000 -1 -19.6000 26.8000 TC 25 -19.6000 26.8000 1 14 273
1977025S11064 1977 8 SI MM EMILIE 1977-02-08 21:00:00 TS -19.6472 26.0732 main 0 0 P________PP___ SH101977 -19.6623 26.0579 -1 -19.6623 26.0579 TC 25 -19.6171 26.1037 1 14 263
1977025S11064 1977 8 SI MM EMILIE 1977-02-09 00:00:00 TS -19.7721 25.3231 main 0 0 O________OP___ jtwc_sh SH101977 -19.8000 25.3000 -1 -19.8000 25.3000 TC 25 -19.7164 25.3694 1 14 260
1977025S11064 1977 8 SI MM EMILIE 1977-02-09 03:00:00 TS -19.8855 24.5767 main 0 0 P________PP___ SH101977 -19.8995 24.5649 -1 -19.8995 24.5649 TC 25 -19.8575 24.6002 1 15 261
1977025S11064 1977 8 SI MM EMILIE 1977-02-09 06:00:00 TS -20.0000 23.8000 main 0 0 O________OO___ jtwc_sh SH101977 -20.0000 23.8000 -1 -20.0000 23.8000 TC 25 -20.0000 23.8000 1 15 262
1977025S11064 1977 8 SI MM EMILIE 1977-02-09 09:00:00 TS -20.1005 22.9574 main 0 0 P________PP___ SH101977 -20.1073 22.9650 -1 -20.1073 22.9650 TC 25 -20.0868 22.9422 1 16 263
1977025S11064 1977 8 SI MM EMILIE 1977-02-09 12:00:00 TS -20.1887 22.0875 main 0 0 O________OP___ jtwc_sh SH101977 -20.2000 22.1000 -1 -20.2000 22.1000 TC 25 -20.1660 22.0625 1 16 265
1977025S11064 1977 8 SI MM EMILIE 1977-02-09 15:00:00 TS -20.2506 21.2188 main 0 0 P________PP___ SH101977 -20.2574 21.2274 -1 -20.2574 21.2274 TC 25 -20.2369 21.2016 1 16 266
1977025S11064 1977 8 SI MM EMILIE 1977-02-09 18:00:00 TS -20.3000 20.4000 main 0 0 O________OO___ jtwc_sh SH101977 -20.3000 20.4000 -1 -20.3000 20.4000 TC 25 -20.3000 20.4000 1 15 266
1977025S11064 1977 8 SI MM EMILIE 1977-02-09 21:00:00 TS -20.3549 19.6315 main 0 0 P________PP___ SH101977 -20.3497 19.6550 -1 -20.3497 19.6550 TC 25 -20.3652 19.5846 1 14 265
1977025S11064 1977 8 SI MM EMILIE 1977-02-10 00:00:00 TS -20.4075 18.9501 main 0 0 O________OP___ jtwc_sh SH101977 -20.4000 19.0000 -1 -20.4000 19.0000 TC 25 -20.4226 18.8503 1 12 265
1977025S11064 1977 8 SI MM EMILIE 1977-02-10 03:00:00 TS -20.4612 18.3287 main 0 0 P________PP___ SH101977 -20.4575 18.3601 -1 -20.4575 18.3601 TC 25 -20.4686 18.2658 1 10 265
1977025S11064 1977 8 SI MM EMILIE 1977-02-10 06:00:00 TS -20.5000 17.9000 main 0 0 O________OO___ jtwc_sh SH101977 -20.5000 17.9000 -1 -20.5000 17.9000 TC 25 -20.5000 17.9000 1 6 265
1977025S11064 1977 8 SI MM EMILIE 1977-02-10 09:00:00 TS -20.5098 17.7044 main 0 0 P________PP___ SH101977 -20.5071 17.6574 -1 -20.5071 17.6574 TC 25 -20.5153 17.7983 1 1 267
1977025S11064 1977 8 SI MM EMILIE 1977-02-10 12:00:00 TS -20.5059 17.7708 main 0 0 O________OP___ jtwc_sh SH101977 -20.5000 17.7000 -1 -20.5000 17.7000 TC 25 -20.5177 17.9123 1 3 89
1977025S11064 1977 8 SI MM EMILIE 1977-02-10 15:00:00 TS -20.5025 18.0718 main 0 0 P________PP___ SH101977 -20.4980 18.0225 -1 -20.4980 18.0225 TC 25 -20.5113 18.1702 1 7 90
1977025S11064 1977 8 SI MM EMILIE 1977-02-10 18:00:00 TS -20.5000 18.5000 main 0 O________OO___ jtwc_sh SH101977 -20.5000 18.5000 -1 -20.5000 18.5000 TC 25 -20.5000 18.5000 6 8 90

About IBTrACS Database

This database is a web-friendly format of International Best Track Archive for Climate Stewardship (IBTrACS), a global best track data archive curated by NOAA dating back to 1842.

Updated: 2021-12-01